createdAt,value
2022-09-28T00:00:10.234Z,23.33
2022-09-28T00:02:02.787Z,22.70
2022-09-28T00:03:36.492Z,26.80
2022-09-28T00:05:09.138Z,28.03
2022-09-28T00:06:41.836Z,26.13
2022-09-28T00:08:14.551Z,30.40
2022-09-28T00:09:46.726Z,32.00
2022-09-28T00:11:21.843Z,31.80
2022-09-28T00:12:55.543Z,31.50
2022-09-28T00:14:28.265Z,32.70
2022-09-28T00:16:11.871Z,34.10
2022-09-28T00:17:47.722Z,34.60
2022-09-28T00:19:20.034Z,36.23
2022-09-28T00:21:12.867Z,33.37
2022-09-28T00:22:45.478Z,34.67
2022-09-28T00:24:18.982Z,33.97
2022-09-28T00:25:51.202Z,38.37
2022-09-28T00:27:23.664Z,36.00
2022-09-28T00:29:02.237Z,37.23
2022-09-28T00:30:34.659Z,37.30
2022-09-28T00:32:12.143Z,39.80
2022-09-28T00:33:44.935Z,36.13
2022-09-28T00:35:17.106Z,38.13
2022-09-28T00:36:49.451Z,38.43
2022-09-28T00:38:21.695Z,42.13
2022-09-28T00:39:54.169Z,38.57
2022-09-28T00:41:28.330Z,38.50
2022-09-28T00:43:18.746Z,37.27
2022-09-28T00:44:59.104Z,38.23
2022-09-28T00:46:36.723Z,37.27
2022-09-28T00:48:08.943Z,36.07
2022-09-28T00:49:58.416Z,40.20
2022-09-28T00:51:34.757Z,37.97
2022-09-28T00:53:17.412Z,37.77
2022-09-28T00:54:51.543Z,36.27
2022-09-28T00:56:30.074Z,37.23
2022-09-28T00:58:07.954Z,36.67
2022-09-28T00:59:41.604Z,38.53
2022-09-28T01:01:14.693Z,37.37
2022-09-28T01:02:48.442Z,38.20
2022-09-28T01:04:25.954Z,37.30
2022-09-28T01:06:05.049Z,37.67
2022-09-28T01:07:38.955Z,39.00
2022-09-28T01:09:14.706Z,39.83
2022-09-28T01:10:48.731Z,37.23
2022-09-28T01:12:21.128Z,38.20
2022-09-28T01:13:57.494Z,36.17
2022-09-28T01:15:36.144Z,36.57
2022-09-28T01:17:17.063Z,35.40
2022-09-28T01:19:17.151Z,35.23
2022-09-28T01:21:22.854Z,35.70
2022-09-28T01:23:30.471Z,34.77
2022-09-28T01:25:50.871Z,32.03
2022-09-28T01:27:39.473Z,32.93
2022-09-28T01:29:39.524Z,32.93
2022-09-28T01:31:16.242Z,29.30
2022-09-28T01:33:09.660Z,28.43
2022-09-28T01:35:00.560Z,29.13
2022-09-28T01:36:59.154Z,28.40
2022-09-28T01:38:50.580Z,27.63
2022-09-28T01:40:27.602Z,26.63
2022-09-28T01:42:11.934Z,26.87
2022-09-28T01:43:53.816Z,24.17
2022-09-28T01:45:45.789Z,26.73
2022-09-28T01:47:24.156Z,25.27
2022-09-28T01:49:09.280Z,25.17
2022-09-28T01:50:46.389Z,25.53
2022-09-28T01:52:59.700Z,24.10
2022-09-28T01:54:42.923Z,25.80
2022-09-28T01:56:28.797Z,23.50
2022-09-28T01:58:16.381Z,25.70
2022-09-28T02:00:12.064Z,25.97
2022-09-28T02:02:02.061Z,26.67
2022-09-28T02:04:01.355Z,23.97
2022-09-28T02:05:37.434Z,24.23
2022-09-28T02:07:21.705Z,23.97
2022-09-28T02:09:02.313Z,21.93
2022-09-28T02:10:47.985Z,21.10
2022-09-28T02:12:49.868Z,19.80
2022-09-28T02:14:25.887Z,21.03
2022-09-28T02:16:17.132Z,20.20
2022-09-28T02:17:50.527Z,20.97
2022-09-28T02:19:27.414Z,19.47
2022-09-28T02:21:28.264Z,19.40
2022-09-28T02:23:04.619Z,19.03
2022-09-28T02:25:04.327Z,18.87
2022-09-28T02:26:43.344Z,17.87
2022-09-28T02:28:16.195Z,17.37
2022-09-28T02:29:49.587Z,18.13
2022-09-28T02:31:21.930Z,17.67
2022-09-28T02:33:03.477Z,18.00
2022-09-28T02:34:35.993Z,19.00
2022-09-28T02:36:09.242Z,17.57
2022-09-28T02:37:41.561Z,17.57
2022-09-28T02:39:19.047Z,17.97
2022-09-28T02:41:24.227Z,18.00
2022-09-28T02:43:08.582Z,19.50
2022-09-28T02:45:00.442Z,18.63
2022-09-28T02:46:57.993Z,18.73
2022-09-28T02:48:45.681Z,19.30
2022-09-28T02:50:36.616Z,19.93
2022-09-28T02:52:30.243Z,18.43
2022-09-28T02:54:53.298Z,19.60
2022-09-28T02:56:54.496Z,18.93
2022-09-28T02:58:41.098Z,19.90
2022-09-28T03:00:23.807Z,20.57
2022-09-28T03:02:50.010Z,20.30
2022-09-28T03:05:05.861Z,19.47
2022-09-28T03:06:50.027Z,20.53
2022-09-28T03:08:50.328Z,19.73
2022-09-28T03:10:43.108Z,19.07
2022-09-28T03:12:20.284Z,19.93
2022-09-28T03:13:53.407Z,18.77
2022-09-28T03:15:33.476Z,20.63
2022-09-28T03:17:05.759Z,21.53
2022-09-28T03:18:38.958Z,20.17
2022-09-28T03:20:11.767Z,19.33
2022-09-28T03:21:44.005Z,20.60
2022-09-28T03:23:25.156Z,21.20
2022-09-28T03:24:57.913Z,18.10
2022-09-28T03:26:30.151Z,19.27
2022-09-28T03:28:02.887Z,19.43
2022-09-28T03:29:35.283Z,20.43
2022-09-28T03:31:08.193Z,20.23
2022-09-28T03:32:41.150Z,19.57
2022-09-28T03:34:13.426Z,17.50
2022-09-28T03:35:50.617Z,17.87
2022-09-28T03:37:23.307Z,18.57
2022-09-28T03:38:56.197Z,16.60
2022-09-28T03:40:28.425Z,16.07
2022-09-28T03:42:01.191Z,16.70
2022-09-28T03:43:33.696Z,15.90
2022-09-28T03:45:07.015Z,17.70
2022-09-28T03:46:39.273Z,16.53
2022-09-28T03:48:11.391Z,18.03
2022-09-28T03:49:44.280Z,18.20
2022-09-28T03:51:16.415Z,16.10
2022-09-28T03:52:48.712Z,18.93
2022-09-28T03:54:20.834Z,18.17
2022-09-28T03:55:54.005Z,18.20
2022-09-28T03:57:26.136Z,17.83
2022-09-28T03:58:58.301Z,16.47
2022-09-28T04:00:30.606Z,16.50
2022-09-28T04:02:04.144Z,15.17
2022-09-28T04:03:37.118Z,15.47
2022-09-28T04:05:09.719Z,15.10
2022-09-28T04:06:42.627Z,14.73
2022-09-28T04:08:15.144Z,14.83
2022-09-28T04:09:47.335Z,15.27
2022-09-28T04:11:19.606Z,16.80
2022-09-28T04:12:57.710Z,16.03
2022-09-28T04:14:30.048Z,16.43
2022-09-28T04:16:02.615Z,16.00
2022-09-28T04:17:39.823Z,14.70
2022-09-28T04:19:12.279Z,16.30
2022-09-28T04:20:46.247Z,16.00
2022-09-28T04:22:18.431Z,17.47
2022-09-28T04:23:51.688Z,16.90
2022-09-28T04:25:24.155Z,16.10
2022-09-28T04:27:16.465Z,16.00
2022-09-28T04:29:08.280Z,14.77
2022-09-28T04:30:40.647Z,17.07
2022-09-28T04:32:13.447Z,17.30
2022-09-28T04:33:46.064Z,18.03
2022-09-28T04:35:18.435Z,18.53
2022-09-28T04:36:51.203Z,16.67
2022-09-28T04:38:41.816Z,17.40
2022-09-28T04:40:15.929Z,16.73
2022-09-28T04:41:49.338Z,17.17
2022-09-28T04:43:21.551Z,16.47
2022-09-28T04:44:54.243Z,17.80
2022-09-28T04:46:26.891Z,16.77
2022-09-28T04:47:59.396Z,15.50
2022-09-28T04:49:31.822Z,16.43
2022-09-28T04:51:04.727Z,17.87
2022-09-28T04:52:37.999Z,16.27
2022-09-28T04:54:10.167Z,14.37
2022-09-28T04:55:43.172Z,17.03
2022-09-28T04:57:15.927Z,17.70
2022-09-28T04:58:52.546Z,16.93
2022-09-28T05:00:25.519Z,17.63
2022-09-28T05:01:57.825Z,17.20
2022-09-28T05:03:30.506Z,20.60
2022-09-28T05:05:02.771Z,19.77
2022-09-28T05:06:35.023Z,20.20
2022-09-28T05:08:07.183Z,20.30
2022-09-28T05:09:39.545Z,21.70
2022-09-28T05:11:13.517Z,20.93
2022-09-28T05:12:46.080Z,20.33
2022-09-28T05:14:21.941Z,18.87
2022-09-28T05:16:01.774Z,21.63
2022-09-28T05:17:36.764Z,19.65
2022-09-28T05:19:10.456Z,20.13
2022-09-28T05:20:42.815Z,19.43
2022-09-28T05:22:15.876Z,19.97
2022-09-28T05:23:48.509Z,18.80
2022-09-28T05:25:20.704Z,19.63
2022-09-28T05:26:52.844Z,18.67
2022-09-28T05:28:29.487Z,18.37
2022-09-28T05:30:01.772Z,20.67
2022-09-28T05:31:34.468Z,21.87
2022-09-28T05:33:06.746Z,21.47
2022-09-28T05:34:39.225Z,20.70
2022-09-28T05:36:11.432Z,21.70
2022-09-28T05:37:43.987Z,22.20
2022-09-28T05:39:16.315Z,21.93
2022-09-28T05:40:49.273Z,19.90
2022-09-28T05:42:21.518Z,19.10
2022-09-28T05:43:55.021Z,20.23
2022-09-28T05:45:27.953Z,21.07
2022-09-28T05:47:00.370Z,22.60
2022-09-28T05:48:32.568Z,22.83
2022-09-28T05:50:06.906Z,23.87
2022-09-28T05:51:39.265Z,24.03
2022-09-28T05:53:11.652Z,25.77
2022-09-28T05:54:43.908Z,21.30
2022-09-28T05:56:16.083Z,21.50
2022-09-28T05:57:48.460Z,18.97
2022-09-28T05:59:20.911Z,18.10
2022-09-28T06:00:57.697Z,18.67
2022-09-28T06:02:30.007Z,17.97
2022-09-28T06:04:02.327Z,15.47
2022-09-28T06:05:36.988Z,14.00
2022-09-28T06:14:57.030Z,8.90
2022-09-28T06:16:29.352Z,8.47
2022-09-28T06:18:06.644Z,8.47
2022-09-28T06:19:39.322Z,10.30
2022-09-28T06:21:13.712Z,9.87
2022-09-28T06:22:46.012Z,9.30
2022-09-28T06:24:18.548Z,9.77
2022-09-28T06:25:50.918Z,10.47
2022-09-28T06:27:23.480Z,11.27
2022-09-28T06:28:55.786Z,11.67
2022-09-28T06:30:31.432Z,11.53
2022-09-28T06:32:03.646Z,12.10
2022-09-28T06:33:35.919Z,11.77
2022-09-28T06:35:09.947Z,10.67
2022-09-28T06:36:42.401Z,11.73
2022-09-28T06:38:14.854Z,10.90
2022-09-28T06:39:46.956Z,10.93
2022-09-28T06:41:19.581Z,10.30
2022-09-28T06:43:02.873Z,9.50
2022-09-28T06:44:35.837Z,9.63
2022-09-28T06:46:10.093Z,9.70
2022-09-28T06:47:42.363Z,9.93
2022-09-28T06:49:19.225Z,9.80
2022-09-28T06:50:51.810Z,9.80
2022-09-28T06:52:24.051Z,9.57
2022-09-28T06:53:56.912Z,9.80
2022-09-28T06:55:30.746Z,11.03
2022-09-28T06:57:02.975Z,11.43
2022-09-28T06:58:35.264Z,10.70
2022-09-28T07:00:08.627Z,11.40
2022-09-28T07:01:41.337Z,10.37
2022-09-28T07:03:20.557Z,10.17
2022-09-28T07:04:52.702Z,10.53
2022-09-28T07:06:26.754Z,9.83
2022-09-28T07:07:59.132Z,10.63
2022-09-28T07:09:33.571Z,11.17
2022-09-28T07:11:08.530Z,11.37
2022-09-28T07:12:41.371Z,11.60
2022-09-28T07:14:26.450Z,10.27
2022-09-28T07:16:06.240Z,10.87
2022-09-28T07:17:53.802Z,10.80
2022-09-28T07:19:29.865Z,10.60
2022-09-28T07:21:04.100Z,11.80
2022-09-28T07:22:42.954Z,11.63
2022-09-28T07:24:16.228Z,11.97
2022-09-28T07:25:50.204Z,12.70
2022-09-28T07:27:28.167Z,12.60
2022-09-28T07:29:01.104Z,11.80
2022-09-28T07:30:35.838Z,12.60
2022-09-28T07:32:09.002Z,12.43
2022-09-28T07:33:41.285Z,11.57
2022-09-28T07:35:13.531Z,11.70
2022-09-28T07:36:45.807Z,11.13
2022-09-28T07:38:18.959Z,10.03
2022-09-28T07:40:09.520Z,9.80
2022-09-28T07:41:43.089Z,9.07
2022-09-28T07:43:20.512Z,9.40
2022-09-28T07:44:53.055Z,9.33
2022-09-28T07:46:25.237Z,8.80
2022-09-28T07:47:57.436Z,7.70
2022-09-28T07:49:30.639Z,8.23
2022-09-28T07:51:04.552Z,9.60
2022-09-28T07:52:36.821Z,9.80
2022-09-28T07:54:08.984Z,9.93
2022-09-28T07:55:41.202Z,9.87
2022-09-28T07:57:13.564Z,9.60
2022-09-28T07:58:48.765Z,9.57
2022-09-28T08:00:21.341Z,9.90
2022-09-28T08:01:53.638Z,10.03
2022-09-28T08:03:26.029Z,8.50
2022-09-28T08:04:59.542Z,7.80
2022-09-28T08:06:31.883Z,7.10
2022-09-28T08:08:04.159Z,8.23
2022-09-28T08:09:37.004Z,8.50
2022-09-28T08:11:10.560Z,8.80
2022-09-28T08:12:43.133Z,8.50
2022-09-28T08:14:15.375Z,8.70
2022-09-28T08:15:50.521Z,8.67
2022-09-28T08:17:22.775Z,7.90
2022-09-28T08:18:55.044Z,8.40
2022-09-28T08:20:48.192Z,8.60
2022-09-28T08:22:24.040Z,9.10
2022-09-28T08:23:57.128Z,8.53
2022-09-28T08:25:29.700Z,8.90
2022-09-28T08:27:01.946Z,9.63
2022-09-28T08:28:39.187Z,9.67
2022-09-28T08:30:11.899Z,9.10
2022-09-28T08:31:44.159Z,9.73
2022-09-28T08:33:20.387Z,9.63
2022-09-28T08:34:54.304Z,10.20
2022-09-28T08:36:26.569Z,9.50
2022-09-28T08:37:59.363Z,9.33
2022-09-28T08:39:31.627Z,8.60
2022-09-28T08:41:23.452Z,7.90
2022-09-28T08:43:06.982Z,7.03
2022-09-28T08:44:48.021Z,8.10
2022-09-28T08:46:27.278Z,7.33
2022-09-28T08:48:56.976Z,6.50
2022-09-28T08:50:53.580Z,5.50
2022-09-28T08:52:38.988Z,5.70
2022-09-28T08:54:34.004Z,5.30
2022-09-28T08:56:15.164Z,5.40
2022-09-28T08:58:00.164Z,4.67
2022-09-28T08:59:53.342Z,4.93
2022-09-28T09:01:37.131Z,5.17
2022-09-28T09:03:26.154Z,4.60
2022-09-28T09:05:00.480Z,5.50
2022-09-28T09:07:11.723Z,5.33
2022-09-28T09:09:10.124Z,5.50
2022-09-28T09:11:45.418Z,4.13
2022-09-28T09:13:52.718Z,4.70
2022-09-28T09:15:48.178Z,4.60
2022-09-28T09:17:43.596Z,4.70
2022-09-28T09:19:47.666Z,5.10
2022-09-28T09:21:43.975Z,5.43
2022-09-28T09:23:35.387Z,4.93
2022-09-28T09:25:18.323Z,5.53
2022-09-28T09:27:06.957Z,4.40
2022-09-28T09:29:13.641Z,3.87
2022-09-28T09:31:03.930Z,5.10
2022-09-28T09:33:11.163Z,3.77
2022-09-28T09:35:18.512Z,3.00
2022-09-28T09:36:57.224Z,2.50
2022-09-28T09:39:10.664Z,2.60
2022-09-28T09:41:17.066Z,4.23
2022-09-28T09:43:28.105Z,4.43
2022-09-28T09:45:29.946Z,3.27
2022-09-28T09:47:19.981Z,3.50
2022-09-28T09:49:06.918Z,4.67
2022-09-28T09:50:53.362Z,3.37
2022-09-28T09:52:47.912Z,3.27
2022-09-28T09:54:56.049Z,2.70
2022-09-28T09:56:43.985Z,2.73
2022-09-28T09:58:34.430Z,2.50
2022-09-28T10:00:14.433Z,2.20
2022-09-28T10:01:47.462Z,2.60
2022-09-28T10:03:29.193Z,2.90
2022-09-28T10:05:19.654Z,2.63
2022-09-28T10:06:59.351Z,2.40
2022-09-28T10:08:41.036Z,2.63
2022-09-28T10:10:30.964Z,3.00
2022-09-28T10:12:04.055Z,2.47
2022-09-28T10:13:37.189Z,1.80
2022-09-28T10:15:16.405Z,1.60
2022-09-28T10:16:55.425Z,1.40
2022-09-28T10:18:28.759Z,1.80
2022-09-28T10:20:01.270Z,1.60
2022-09-28T10:21:37.571Z,1.30
2022-09-28T10:23:26.582Z,1.80
2022-09-28T10:25:00.330Z,1.57
2022-09-28T10:26:44.260Z,1.70
2022-09-28T10:28:26.996Z,1.90
2022-09-28T10:30:14.821Z,2.30
2022-09-28T10:31:50.573Z,2.17
2022-09-28T10:33:34.516Z,2.30
2022-09-28T10:35:42.252Z,3.33
2022-09-28T10:37:17.885Z,2.50
2022-09-28T10:38:50.168Z,2.27
2022-09-28T10:40:44.546Z,1.83
2022-09-28T10:42:30.524Z,1.60
2022-09-28T10:44:06.969Z,1.70
2022-09-28T10:45:40.320Z,1.60
2022-09-28T10:47:19.393Z,1.73
2022-09-28T10:48:57.774Z,2.30
2022-09-28T10:50:30.485Z,2.10
2022-09-28T10:52:02.854Z,1.83
2022-09-28T10:53:37.290Z,1.90
2022-09-28T10:55:21.303Z,2.10
2022-09-28T10:56:56.131Z,2.57
2022-09-28T10:58:37.050Z,1.73
2022-09-28T11:00:42.200Z,1.83
2022-09-28T11:02:21.089Z,1.80
2022-09-28T11:04:22.252Z,2.00
2022-09-28T11:06:12.599Z,1.60
2022-09-28T11:07:47.935Z,1.30
2022-09-28T11:09:33.583Z,1.33
2022-09-28T11:11:19.901Z,1.50
2022-09-28T11:12:54.544Z,1.50
2022-09-28T11:14:41.104Z,1.50
2022-09-28T11:16:28.769Z,1.50
2022-09-28T11:18:31.579Z,2.07
2022-09-28T11:20:27.911Z,1.87
2022-09-28T11:22:01.510Z,2.00
2022-09-28T11:23:34.243Z,2.20
2022-09-28T11:25:17.435Z,1.70
2022-09-28T11:26:56.413Z,1.60
2022-09-28T11:28:37.511Z,1.87
2022-09-28T11:30:40.702Z,2.00
2022-09-28T11:32:15.811Z,1.80
2022-09-28T11:33:48.831Z,1.73
2022-09-28T11:35:29.564Z,2.10
2022-09-28T11:37:43.794Z,2.00
2022-09-28T11:40:13.554Z,1.60
2022-09-28T11:42:21.378Z,1.70
2022-09-28T11:44:32.675Z,1.50
2022-09-28T11:46:32.360Z,1.00
2022-09-28T11:48:24.309Z,1.10
2022-09-28T11:50:26.460Z,1.40
2022-09-28T11:52:11.065Z,1.40
2022-09-28T11:53:53.773Z,1.07
2022-09-28T11:55:42.279Z,1.00
2022-09-28T11:57:22.187Z,1.00
2022-09-28T11:59:04.108Z,1.00
2022-09-28T12:00:45.929Z,1.07
2022-09-28T12:03:00.200Z,1.20
2022-09-28T12:05:15.927Z,1.20
2022-09-28T12:07:19.387Z,1.20
2022-09-28T12:09:16.327Z,1.30
2022-09-28T12:11:09.727Z,1.30
2022-09-28T12:12:54.372Z,1.30
2022-09-28T12:14:38.292Z,1.10
2022-09-28T12:18:44.764Z,1.10
2022-09-28T12:20:23.851Z,1.20
2022-09-28T12:22:05.242Z,1.97
2022-09-28T12:23:41.979Z,1.23
2022-09-28T12:25:21.108Z,1.10
2022-09-28T12:27:42.189Z,1.00
2022-09-28T12:29:22.704Z,1.60
2022-09-28T12:31:03.875Z,1.47
2022-09-28T12:32:52.382Z,1.20
2022-09-28T12:34:25.008Z,1.47
2022-09-28T12:36:47.406Z,1.00
2022-09-28T12:39:35.807Z,1.03
2022-09-28T12:41:31.358Z,1.40
2022-09-28T12:43:30.060Z,1.37
2022-09-28T12:46:06.655Z,1.10
2022-09-28T12:48:08.464Z,1.43
2022-09-28T12:50:37.138Z,1.10
2022-09-28T12:51:55.149Z,1.60
2022-09-28T12:53:31.087Z,1.30
2022-09-28T12:55:40.866Z,1.30
2022-09-28T12:57:38.162Z,1.40
2022-09-28T13:00:02.327Z,1.20
2022-09-28T13:01:56.768Z,1.13
2022-09-28T13:03:50.180Z,1.40
2022-09-28T13:06:04.417Z,1.30
2022-09-28T13:08:11.429Z,1.20
2022-09-28T13:10:14.779Z,1.33
2022-09-28T13:11:58.755Z,1.30
2022-09-28T13:13:57.311Z,1.30
2022-09-28T13:15:57.931Z,1.20
2022-09-28T13:17:54.825Z,1.03
2022-09-28T13:20:19.325Z,1.30
2022-09-28T13:22:19.908Z,1.20
2022-09-28T13:24:08.675Z,1.30
2022-09-28T13:26:14.588Z,1.23
2022-09-28T13:27:55.457Z,1.20
2022-09-28T13:29:28.205Z,1.37
2022-09-28T13:31:02.449Z,1.50
2022-09-28T13:32:38.912Z,1.00
2022-09-28T13:34:20.593Z,1.47
2022-09-28T13:35:53.040Z,1.20
2022-09-28T13:37:26.328Z,1.40
2022-09-28T13:39:00.754Z,1.50
2022-09-28T13:41:04.772Z,1.40
2022-09-28T13:42:55.818Z,1.30
2022-09-28T13:44:59.458Z,1.20
2022-09-28T13:47:25.632Z,1.30
2022-09-28T13:49:32.731Z,1.20
2022-09-28T13:51:22.804Z,1.40
2022-09-28T13:53:32.675Z,1.20
2022-09-28T13:55:39.203Z,1.07
2022-09-28T13:57:46.336Z,1.63
2022-09-28T13:59:30.436Z,1.30
2022-09-28T14:01:14.477Z,1.33
2022-09-28T14:03:13.422Z,1.50
2022-09-28T14:05:00.758Z,1.40
2022-09-28T14:06:33.769Z,1.33
2022-09-28T14:08:08.669Z,1.10
2022-09-28T14:09:46.688Z,1.33
2022-09-28T14:11:55.476Z,1.40
2022-09-28T14:14:11.755Z,2.30
2022-09-28T14:15:47.090Z,1.90
2022-09-28T14:17:19.355Z,1.50
2022-09-28T14:19:12.686Z,1.40
2022-09-28T14:21:12.903Z,1.50
2022-09-28T14:23:25.250Z,1.40
2022-09-28T14:25:06.610Z,1.10
2022-09-28T14:27:10.140Z,1.30
2022-09-28T14:29:20.438Z,1.70
2022-09-28T14:30:58.253Z,1.60
2022-09-28T14:32:37.488Z,1.60
2022-09-28T14:34:34.342Z,1.70
2022-09-28T14:36:43.407Z,2.00
2022-09-28T14:38:41.023Z,1.70
2022-09-28T14:40:44.712Z,1.67
2022-09-28T14:42:25.438Z,1.90
2022-09-28T14:44:18.098Z,3.00
2022-09-28T14:46:12.371Z,2.30
2022-09-28T14:48:17.944Z,3.57
2022-09-28T14:50:01.600Z,2.30
2022-09-28T14:51:35.402Z,2.10
2022-09-28T14:53:16.252Z,3.33
2022-09-28T14:54:54.250Z,2.97
2022-09-28T14:56:32.713Z,3.07
2022-09-28T14:58:17.859Z,2.27
2022-09-28T14:59:50.448Z,2.00
2022-09-28T15:01:25.530Z,1.90
2022-09-28T15:03:08.921Z,1.90
2022-09-28T15:04:52.001Z,1.80
2022-09-28T15:06:28.787Z,2.23
2022-09-28T15:08:01.857Z,3.27
2022-09-28T15:09:39.186Z,4.17
2022-09-28T15:11:20.467Z,5.10
2022-09-28T15:12:53.525Z,7.53
2022-09-28T15:14:31.935Z,6.73
2022-09-28T15:16:11.515Z,6.73
2022-09-28T15:17:58.885Z,7.00
2022-09-28T15:19:51.303Z,9.70
2022-09-28T15:21:32.625Z,7.00
2022-09-28T15:23:04.955Z,6.70
2022-09-28T15:24:38.326Z,5.40
2022-09-28T15:26:32.618Z,5.53
2022-09-28T15:28:22.124Z,5.70
2022-09-28T15:30:16.057Z,6.53
2022-09-28T15:31:53.528Z,5.43
2022-09-28T15:33:53.231Z,9.00
2022-09-28T15:35:28.003Z,21.83
2022-09-28T15:37:00.596Z,16.20
2022-09-28T15:38:35.028Z,8.87
2022-09-28T15:40:16.903Z,10.17
2022-09-28T15:41:51.172Z,13.47
2022-09-28T15:43:32.992Z,9.60
2022-09-28T15:45:26.510Z,7.93
2022-09-28T15:47:28.018Z,9.93
2022-09-28T15:49:01.539Z,10.70
2022-09-28T15:50:36.646Z,11.27
2022-09-28T15:52:33.961Z,15.53
2022-09-28T15:54:21.073Z,21.87
2022-09-28T15:56:00.830Z,19.50
2022-09-28T15:57:38.517Z,12.83
2022-09-28T15:59:28.238Z,12.50
2022-09-28T16:01:36.969Z,11.50
2022-09-28T16:03:09.824Z,10.77
2022-09-28T16:04:56.177Z,10.40
2022-09-28T16:06:28.522Z,13.23
2022-09-28T16:08:06.147Z,14.77
2022-09-28T16:10:06.344Z,27.17
2022-09-28T16:11:41.075Z,28.37
2022-09-28T16:13:20.060Z,29.53
2022-09-28T16:14:56.143Z,34.47
2022-09-28T16:16:48.679Z,21.43
2022-09-28T16:18:23.532Z,21.70
2022-09-28T16:19:56.027Z,28.40
2022-09-28T16:21:43.548Z,23.67
2022-09-28T16:23:32.049Z,20.60
2022-09-28T16:25:05.338Z,16.07
2022-09-28T16:26:39.034Z,18.57
2022-09-28T16:28:25.859Z,18.10
2022-09-28T16:30:25.427Z,21.30
2022-09-28T16:32:26.821Z,18.87
2022-09-28T16:34:20.141Z,14.10
2022-09-28T16:35:52.978Z,19.67
2022-09-28T16:37:32.369Z,20.20
2022-09-28T16:39:04.737Z,22.37
2022-09-28T16:40:54.819Z,35.27
2022-09-28T16:42:28.400Z,24.23
2022-09-28T16:44:02.404Z,21.80
2022-09-28T16:45:37.880Z,22.37
2022-09-28T16:47:10.212Z,19.87
2022-09-28T16:48:52.011Z,14.33
2022-09-28T16:50:25.687Z,20.77
2022-09-28T16:51:57.911Z,13.57
2022-09-28T16:53:49.180Z,16.50
2022-09-28T16:55:40.396Z,15.53
2022-09-28T16:57:15.146Z,15.30
2022-09-28T16:58:49.218Z,13.93
2022-09-28T17:00:25.406Z,13.10
2022-09-28T17:01:58.594Z,12.63
2022-09-28T17:03:31.083Z,16.20
2022-09-28T17:05:03.564Z,13.03
2022-09-28T17:06:35.844Z,9.20
2022-09-28T17:08:17.112Z,11.47
2022-09-28T17:09:49.329Z,11.47
2022-09-28T17:11:24.522Z,8.57
2022-09-28T17:12:57.033Z,11.10
2022-09-28T17:14:29.370Z,12.43
2022-09-28T17:16:37.143Z,12.37
2022-09-28T17:18:15.250Z,13.77
2022-09-28T17:19:47.621Z,11.70
2022-09-28T17:21:20.929Z,13.53
2022-09-28T17:22:53.889Z,13.03
2022-09-28T17:24:26.286Z,14.10
2022-09-28T17:25:59.351Z,12.37
2022-09-28T17:27:32.338Z,10.70
2022-09-28T17:29:08.688Z,12.40
2022-09-28T17:30:41.263Z,11.57
2022-09-28T17:32:19.192Z,10.37
2022-09-28T17:33:52.220Z,11.27
2022-09-28T17:35:25.642Z,7.97
2022-09-28T17:36:59.041Z,7.97
2022-09-28T17:38:32.109Z,7.90
2022-09-28T17:40:24.816Z,7.93
2022-09-28T17:41:57.021Z,8.53
2022-09-28T17:43:29.564Z,8.20
2022-09-28T17:45:01.891Z,8.73
2022-09-28T17:46:45.896Z,9.57
2022-09-28T17:48:24.637Z,11.00
2022-09-28T17:49:58.717Z,29.50
2022-09-28T17:51:39.433Z,37.40
2022-09-28T17:53:12.579Z,17.17
2022-09-28T17:54:44.767Z,15.23
2022-09-28T17:56:16.909Z,12.67
2022-09-28T17:57:50.753Z,13.97
2022-09-28T17:59:22.847Z,13.90
2022-09-28T18:00:55.014Z,12.77
2022-09-28T18:02:27.171Z,16.57
2022-09-28T18:04:01.832Z,16.53
2022-09-28T18:05:36.832Z,11.23
2022-09-28T18:07:09.534Z,8.33
2022-09-28T18:08:43.670Z,9.17
2022-09-28T18:10:24.114Z,11.27
2022-09-28T18:12:04.133Z,10.10
2022-09-28T18:13:36.707Z,9.43
2022-09-28T18:15:10.479Z,7.83
2022-09-28T18:16:44.099Z,9.27
2022-09-28T18:18:16.326Z,9.93
2022-09-28T18:19:48.567Z,7.90
2022-09-28T18:21:20.806Z,6.73
2022-09-28T18:22:53.228Z,6.20
2022-09-28T18:24:25.425Z,5.47
2022-09-28T18:25:57.539Z,6.20
2022-09-28T18:27:30.743Z,6.37
2022-09-28T18:29:03.220Z,6.90
2022-09-28T18:30:41.040Z,6.43
2022-09-28T18:32:13.546Z,6.97
2022-09-28T18:33:45.791Z,8.07
2022-09-28T18:35:22.807Z,8.13
2022-09-28T18:36:55.549Z,9.93
2022-09-28T18:38:27.781Z,15.13
2022-09-28T18:40:00.365Z,10.63
2022-09-28T18:41:33.060Z,9.40
2022-09-28T18:43:05.364Z,10.00
2022-09-28T18:44:38.932Z,15.57
2022-09-28T18:46:11.952Z,17.80
2022-09-28T18:47:45.230Z,13.07
2022-09-28T18:49:17.710Z,11.67
2022-09-28T18:50:49.989Z,10.17
2022-09-28T18:52:22.142Z,5.80
2022-09-28T18:53:54.610Z,4.10
2022-09-28T18:55:26.880Z,3.40
2022-09-28T18:56:59.272Z,3.30
2022-09-28T18:58:36.012Z,2.60
2022-09-28T19:00:12.239Z,2.33
2022-09-28T19:01:44.650Z,1.97
2022-09-28T19:03:17.522Z,1.90
2022-09-28T19:04:49.805Z,1.97
2022-09-28T19:06:22.176Z,2.30
2022-09-28T19:07:55.279Z,2.40
2022-09-28T19:09:28.093Z,2.10
2022-09-28T19:11:16.910Z,1.90
2022-09-28T19:12:49.556Z,2.30
2022-09-28T19:14:21.924Z,2.20
2022-09-28T19:15:54.162Z,2.63
2022-09-28T19:17:26.415Z,2.40
2022-09-28T19:19:02.798Z,2.10
2022-09-28T19:20:35.118Z,2.70
2022-09-28T19:22:07.375Z,2.63
2022-09-28T19:23:40.644Z,2.30
2022-09-28T19:25:13.487Z,2.70
2022-09-28T19:26:46.608Z,2.80
2022-09-28T19:28:18.807Z,2.63
2022-09-28T19:29:51.695Z,3.17
2022-09-28T19:31:24.993Z,3.63
2022-09-28T19:32:57.264Z,3.53
2022-09-28T19:34:30.183Z,3.70
2022-09-28T19:36:11.498Z,3.50
2022-09-28T19:37:46.685Z,3.83
2022-09-28T19:39:18.844Z,4.43
2022-09-28T19:40:51.334Z,5.73
2022-09-28T19:42:23.584Z,5.90
2022-09-28T19:43:56.278Z,6.57
2022-09-28T19:45:29.307Z,6.27
2022-09-28T19:47:08.805Z,11.33
2022-09-28T19:48:43.375Z,14.30
2022-09-28T19:50:15.948Z,14.73
2022-09-28T19:52:14.159Z,13.90
2022-09-28T19:53:47.147Z,15.07
2022-09-28T19:55:20.470Z,12.27
2022-09-28T19:56:53.587Z,9.37
2022-09-28T19:58:31.377Z,10.40
2022-09-28T20:00:04.596Z,13.67
2022-09-28T20:01:37.628Z,9.63
2022-09-28T20:03:09.741Z,11.27
2022-09-28T20:04:42.107Z,11.33
2022-09-28T20:06:17.358Z,10.43
2022-09-28T20:07:50.371Z,12.30
2022-09-28T20:09:22.656Z,11.13
2022-09-28T20:10:57.024Z,18.97
2022-09-28T20:12:29.204Z,33.20
2022-09-28T20:14:02.626Z,27.43
2022-09-28T20:15:36.270Z,28.07
2022-09-28T20:17:09.488Z,23.57
2022-09-28T20:18:52.384Z,20.20
2022-09-28T20:20:28.426Z,23.33
2022-09-28T20:22:03.253Z,27.80
2022-09-28T20:23:36.756Z,26.57
2022-09-28T20:25:10.580Z,39.73
2022-09-28T20:26:44.683Z,45.10
2022-09-28T20:28:17.052Z,24.03
2022-09-28T20:29:49.507Z,18.20
2022-09-28T20:31:24.947Z,17.77
2022-09-28T20:32:57.739Z,24.37
2022-09-28T20:34:29.976Z,22.60
2022-09-28T20:36:08.086Z,22.03
2022-09-28T20:37:40.337Z,23.90
2022-09-28T20:39:13.520Z,21.60
2022-09-28T20:40:46.765Z,20.00
2022-09-28T20:42:19.138Z,20.40
2022-09-28T20:43:54.554Z,18.13
2022-09-28T20:45:27.353Z,16.27
2022-09-28T20:47:00.166Z,14.87
2022-09-28T20:48:32.894Z,16.60
2022-09-28T20:50:06.586Z,15.87
2022-09-28T20:51:39.147Z,13.77
2022-09-28T20:53:11.284Z,14.30
2022-09-28T20:54:43.447Z,14.70
2022-09-28T20:56:28.368Z,12.37
2022-09-28T20:58:04.959Z,12.50
2022-09-28T20:59:37.660Z,12.03
2022-09-28T21:01:17.114Z,13.30
2022-09-28T21:02:52.953Z,12.93
2022-09-28T21:04:25.832Z,14.00
2022-09-28T21:05:58.387Z,13.90
2022-09-28T21:07:31.091Z,16.20
2022-09-28T21:09:06.667Z,14.33
2022-09-28T21:10:44.456Z,17.00
2022-09-28T21:12:17.160Z,18.50
2022-09-28T21:14:00.404Z,11.13
2022-09-28T21:15:33.765Z,8.50
2022-09-28T21:17:06.176Z,7.93
2022-09-28T21:18:39.338Z,7.80
2022-09-28T21:20:11.807Z,8.27
2022-09-28T21:21:44.331Z,7.43
2022-09-28T21:23:23.950Z,9.23
2022-09-28T21:24:57.031Z,10.40
2022-09-28T21:26:31.312Z,12.43
2022-09-28T21:28:03.584Z,11.27
2022-09-28T21:29:36.379Z,12.33
2022-09-28T21:31:12.155Z,13.33
2022-09-28T21:32:44.359Z,13.27
2022-09-28T21:34:19.544Z,16.43
2022-09-28T21:35:52.318Z,28.73
2022-09-28T21:37:24.467Z,32.80
2022-09-28T21:38:57.652Z,18.57
2022-09-28T21:40:31.324Z,18.07
2022-09-28T21:42:03.779Z,31.47
2022-09-28T21:43:36.496Z,27.53
2022-09-28T21:45:09.054Z,33.93
2022-09-28T21:46:42.109Z,24.93
2022-09-28T21:48:14.866Z,23.40
2022-09-28T21:49:46.988Z,20.13
2022-09-28T21:51:19.467Z,20.30
2022-09-28T21:52:54.075Z,16.85
2022-09-28T22:03:45.249Z,9.35
2022-09-28T22:11:29.332Z,8.85
2022-09-28T22:14:33.811Z,8.10
2022-09-28T22:31:37.724Z,11.20
2022-09-28T22:33:09.949Z,11.90
2022-09-28T22:39:21.064Z,11.60
2022-09-28T22:42:29.854Z,12.60
2022-09-28T22:44:02.403Z,11.20